createdAt,value
2023-04-10T00:00:41.794Z,102042.44
2023-04-10T00:03:12.906Z,102048.38
2023-04-10T00:05:43.264Z,102044.22
2023-04-10T00:08:13.419Z,102041.09
2023-04-10T00:10:43.670Z,102036.94
2023-04-10T00:13:14.433Z,102039.06
2023-04-10T00:15:44.687Z,102033.25
2023-04-10T00:18:14.942Z,102029.91
2023-04-10T00:20:45.149Z,102036.69
2023-04-10T00:23:15.658Z,102035.50
2023-04-10T00:25:48.461Z,102027.28
2023-04-10T00:28:18.695Z,102030.50
2023-04-10T00:30:47.127Z,102021.69
2023-04-10T00:33:15.599Z,102020.25
2023-04-10T00:35:47.273Z,102010.63
2023-04-10T00:38:15.508Z,102004.78
2023-04-10T00:40:43.959Z,102008.81
2023-04-10T00:43:12.341Z,102010.97
2023-04-10T00:45:41.933Z,102002.38
2023-04-10T00:48:09.344Z,102002.59
2023-04-10T00:50:38.046Z,102005.00
2023-04-10T00:53:06.064Z,101994.50
2023-04-10T00:55:34.485Z,102001.06
2023-04-10T00:58:03.177Z,101996.88
2023-04-10T01:00:31.371Z,101991.88
2023-04-10T01:03:01.939Z,102000.91
2023-04-10T01:05:51.308Z,101993.78
2023-04-10T01:08:36.788Z,101992.38
2023-04-10T01:12:15.946Z,102000.44
2023-04-10T01:15:04.648Z,101992.09
2023-04-10T01:17:56.527Z,101998.34
2023-04-10T01:20:34.972Z,101997.03
2023-04-10T01:23:46.498Z,101997.34
2023-04-10T01:26:39.607Z,101994.72
2023-04-10T01:29:23.278Z,101996.25
2023-04-10T01:32:05.022Z,102001.34
2023-04-10T01:34:48.336Z,101993.63
2023-04-10T01:37:31.392Z,101994.06
2023-04-10T01:40:09.851Z,101999.78
2023-04-10T01:42:50.722Z,101996.66
2023-04-10T01:45:29.176Z,101995.00
2023-04-10T01:47:58.521Z,102000.47
2023-04-10T01:50:30.770Z,101998.19
2023-04-10T01:53:06.966Z,101985.59
2023-04-10T01:55:41.284Z,101989.38
2023-04-10T01:58:10.862Z,101992.34
2023-04-10T02:00:43.615Z,101992.59
2023-04-10T02:03:14.056Z,101994.47
2023-04-10T02:06:29.731Z,101995.53
2023-04-10T02:09:37.825Z,101986.97
2023-04-10T02:12:22.687Z,101984.22
2023-04-10T02:14:57.678Z,101988.88
2023-04-10T02:17:32.879Z,102000.63
2023-04-10T02:20:07.965Z,101986.97
2023-04-10T02:22:45.236Z,101986.34
2023-04-10T02:25:16.935Z,101989.34
2023-04-10T02:27:46.830Z,101990.00
2023-04-10T02:30:15.212Z,101988.78
2023-04-10T02:32:44.323Z,101982.38
2023-04-10T02:35:12.233Z,101983.41
2023-04-10T02:37:40.481Z,101983.06
2023-04-10T02:40:09.897Z,101987.06
2023-04-10T02:42:37.157Z,101988.34
2023-04-10T02:45:06.785Z,101983.97
2023-04-10T02:47:33.983Z,101982.28
2023-04-10T02:50:02.591Z,101982.28
2023-04-10T02:52:31.033Z,101986.91
2023-04-10T02:54:59.188Z,101983.81
2023-04-10T02:57:28.872Z,101982.97
2023-04-10T02:59:56.050Z,101985.09
2023-04-10T03:02:24.564Z,101988.03
2023-04-10T03:04:53.810Z,101991.84
2023-04-10T03:07:21.610Z,101987.69
2023-04-10T03:09:49.730Z,101990.63
2023-04-10T03:12:18.624Z,101993.59
2023-04-10T03:14:46.740Z,101992.75
2023-04-10T03:17:14.906Z,101996.53
2023-04-10T03:19:43.397Z,101988.81
2023-04-10T03:22:11.859Z,101994.28
2023-04-10T03:24:41.206Z,101990.13
2023-04-10T03:27:08.677Z,101981.09
2023-04-10T03:29:37.056Z,101993.06
2023-04-10T03:32:06.278Z,101983.22
2023-04-10T03:34:33.834Z,101981.75
2023-04-10T03:37:03.299Z,101975.44
2023-04-10T03:39:30.806Z,101975.66
2023-04-10T03:41:59.152Z,101979.47
2023-04-10T03:44:27.520Z,101981.38
2023-04-10T03:46:55.946Z,101980.53
2023-04-10T03:49:24.327Z,101984.13
2023-04-10T03:51:53.521Z,101981.38
2023-04-10T03:54:21.309Z,101978.88
2023-04-10T03:56:49.623Z,101986.44
2023-04-10T03:59:18.085Z,101988.56
2023-04-10T04:01:46.619Z,101984.41
2023-04-10T04:04:15.044Z,101990.69
2023-04-10T04:06:43.322Z,101995.53
2023-04-10T04:09:11.861Z,101991.38
2023-04-10T04:11:40.120Z,101980.06
2023-04-10T04:14:08.646Z,101984.69
2023-04-10T04:16:37.060Z,101981.97
2023-04-10T04:19:05.359Z,101980.88
2023-04-10T04:21:34.007Z,101978.75
2023-04-10T04:24:02.217Z,101984.00
2023-04-10T04:26:31.308Z,101987.34
2023-04-10T04:28:59.190Z,101989.88
2023-04-10T04:31:32.676Z,101989.88
2023-04-10T04:34:03.300Z,101979.78
2023-04-10T04:36:33.446Z,101983.94
2023-04-10T04:39:03.631Z,101984.34
2023-04-10T04:41:34.165Z,101982.00
2023-04-10T04:44:06.639Z,101997.69
2023-04-10T04:46:36.795Z,101991.75
2023-04-10T04:49:06.972Z,101994.06
2023-04-10T04:51:38.358Z,101993.97
2023-04-10T04:54:08.537Z,101997.69
2023-04-10T04:56:38.690Z,101990.69
2023-04-10T04:59:08.849Z,101995.44
2023-04-10T05:01:39.267Z,102001.53
2023-04-10T05:04:09.725Z,101986.25
2023-04-10T05:06:39.945Z,101991.56
2023-04-10T05:09:10.117Z,101990.31
2023-04-10T05:11:40.539Z,101995.00
2023-04-10T05:14:10.950Z,101997.41
2023-04-10T05:16:41.385Z,101992.22
2023-04-10T05:19:11.578Z,101988.06
2023-04-10T05:21:41.802Z,101995.22
2023-04-10T05:24:12.100Z,101994.75
2023-04-10T05:26:42.788Z,102002.28
2023-04-10T05:29:12.946Z,101993.69
2023-04-10T05:31:43.110Z,101999.66
2023-04-10T05:34:13.365Z,101995.09
2023-04-10T05:36:43.921Z,102000.41
2023-04-10T05:39:14.172Z,102003.31
2023-04-10T05:41:44.354Z,102001.91
2023-04-10T05:44:14.517Z,102006.97
2023-04-10T05:46:44.875Z,101996.50
2023-04-10T05:49:15.477Z,102000.91
2023-04-10T05:51:50.474Z,101992.97
2023-04-10T05:54:20.660Z,101995.38
2023-04-10T05:56:50.849Z,101998.00
2023-04-10T05:59:21.012Z,101999.41
2023-04-10T06:01:51.203Z,102003.28
2023-04-10T06:04:24.410Z,101995.66
2023-04-10T06:06:55.385Z,102003.03
2023-04-10T06:09:25.938Z,102001.19
2023-04-10T06:11:56.809Z,102004.94
2023-04-10T06:14:24.502Z,102001.78
2023-04-10T06:16:52.907Z,102009.97
2023-04-10T06:19:21.795Z,102004.59
2023-04-10T06:21:49.765Z,102009.19
2023-04-10T06:24:18.204Z,102005.38
2023-04-10T06:26:46.595Z,102006.81
2023-04-10T06:29:15.201Z,102004.41
2023-04-10T06:31:44.693Z,102002.00
2023-04-10T06:34:14.880Z,101993.22
2023-04-10T06:36:43.240Z,101998.50
2023-04-10T06:39:11.695Z,101988.31
2023-04-10T06:41:40.161Z,101986.06
2023-04-10T06:44:08.581Z,101988.25
2023-04-10T06:46:36.990Z,101989.50
2023-04-10T06:49:05.405Z,101992.00
2023-04-10T06:51:33.762Z,101992.81
2023-04-10T06:54:02.276Z,101993.84
2023-04-10T06:56:30.667Z,101996.13
2023-04-10T06:58:59.113Z,101996.13
2023-04-10T07:01:27.510Z,101994.34
2023-04-10T07:03:56.470Z,101991.69
2023-04-10T07:06:24.382Z,101998.66
2023-04-10T07:08:52.947Z,101989.50
2023-04-10T07:11:21.284Z,101989.88
2023-04-10T07:13:53.956Z,101983.31
2023-04-10T07:16:24.223Z,101985.19
2023-04-10T07:18:54.625Z,101986.28
2023-04-10T07:21:25.037Z,101986.22
2023-04-10T07:23:55.823Z,101981.03
2023-04-10T07:26:26.356Z,101990.50
2023-04-10T07:28:56.662Z,101982.03
2023-04-10T07:31:27.016Z,101985.66
2023-04-10T07:33:57.327Z,101987.53
2023-04-10T07:36:27.868Z,101980.47
2023-04-10T07:38:58.019Z,101981.44
2023-04-10T07:41:28.211Z,101978.06
2023-04-10T07:43:58.392Z,101979.97
2023-04-10T07:46:28.499Z,101975.38
2023-04-10T07:48:57.036Z,101981.72
2023-04-10T07:51:26.100Z,101968.00
2023-04-10T07:53:53.810Z,101972.56
2023-04-10T07:56:23.431Z,101974.97
2023-04-10T07:58:52.425Z,101972.78
2023-04-10T08:01:22.082Z,101969.97
2023-04-10T08:03:50.621Z,101968.94
2023-04-10T08:06:18.955Z,101975.66
2023-04-10T08:08:47.583Z,101961.13
2023-04-10T08:11:42.062Z,101967.19
2023-04-10T08:14:13.629Z,101956.78
2023-04-10T08:16:48.806Z,101954.41
2023-04-10T08:19:19.046Z,101954.94
2023-04-10T08:21:49.188Z,101960.03
2023-04-10T08:24:21.567Z,101958.72
2023-04-10T08:26:51.712Z,101960.44
2023-04-10T08:31:53.007Z,101953.59
2023-04-10T08:34:24.592Z,101957.44
2023-04-10T08:36:55.676Z,101955.81
2023-04-10T08:39:26.264Z,101952.53
2023-04-10T08:41:56.455Z,101947.06
2023-04-10T08:44:26.633Z,101948.84
2023-04-10T08:47:01.405Z,101937.84
2023-04-10T08:50:02.148Z,101942.13
2023-04-10T08:52:43.964Z,101942.41
2023-04-10T08:55:15.877Z,101939.41
2023-04-10T08:57:50.845Z,101938.88
2023-04-10T09:00:31.750Z,101940.81
2023-04-10T09:03:00.282Z,101928.16
2023-04-10T09:05:31.671Z,101924.25
2023-04-10T09:08:01.157Z,101925.81
2023-04-10T09:10:31.867Z,101921.88
2023-04-10T09:12:59.813Z,101917.47
2023-04-10T09:15:28.637Z,101919.47
2023-04-10T09:18:03.969Z,101910.00
2023-04-10T09:20:34.173Z,101905.84
2023-04-10T09:23:24.708Z,101898.41
2023-04-10T09:25:52.605Z,101897.75
2023-04-10T09:28:22.578Z,101886.41
2023-04-10T09:30:52.240Z,101884.97
2023-04-10T09:33:25.499Z,101884.59
2023-04-10T09:36:04.377Z,101879.72
2023-04-10T09:38:35.516Z,101877.69
2023-04-10T09:41:09.360Z,101867.50
2023-04-10T09:43:39.309Z,101875.69
2023-04-10T09:46:09.431Z,101868.22
2023-04-10T09:48:57.197Z,101865.28
2023-04-10T09:51:34.895Z,101869.88
2023-04-10T09:54:05.248Z,101864.66
2023-04-10T09:56:40.299Z,101854.88
2023-04-10T09:59:11.675Z,101848.13
2023-04-10T10:01:42.679Z,101848.94
2023-04-10T10:04:15.814Z,101845.66
2023-04-10T10:06:46.977Z,101843.56
2023-04-10T10:09:17.903Z,101827.13
2023-04-10T10:11:52.690Z,101837.69
2023-04-10T10:14:29.072Z,101829.13
2023-04-10T10:17:12.365Z,101813.38
2023-04-10T10:20:01.162Z,101828.41
2023-04-10T10:22:33.233Z,101823.63
2023-04-10T10:25:04.962Z,101823.66
2023-04-10T10:27:41.578Z,101813.44
2023-04-10T10:30:28.165Z,101821.16
2023-04-10T10:33:05.962Z,101807.09
2023-04-10T10:35:38.010Z,101810.63
2023-04-10T10:38:09.287Z,101804.88
2023-04-10T10:40:55.852Z,101797.31
2023-04-10T10:43:56.001Z,101788.94
2023-04-10T10:47:33.134Z,101785.97
2023-04-10T10:50:04.712Z,101781.84
2023-04-10T10:52:51.351Z,101777.50
2023-04-10T10:55:37.142Z,101771.88
2023-04-10T10:58:11.606Z,101766.59
2023-04-10T11:00:50.953Z,101766.56
2023-04-10T11:03:22.669Z,101765.00
2023-04-10T11:06:04.261Z,101759.16
2023-04-10T11:08:34.189Z,101756.72
2023-04-10T11:11:25.240Z,101760.63
2023-04-10T11:13:58.261Z,101753.56
2023-04-10T11:16:36.115Z,101751.16
2023-04-10T11:19:16.269Z,101742.47
2023-04-10T11:22:08.164Z,101749.72
2023-04-10T11:25:02.731Z,101723.22
2023-04-10T11:27:49.438Z,101720.38
2023-04-10T11:30:28.597Z,101722.72
2023-04-10T11:33:01.888Z,101714.41
2023-04-10T11:35:33.719Z,101717.28
2023-04-10T11:38:18.336Z,101713.41
2023-04-10T11:41:04.540Z,101708.66
2023-04-10T11:43:35.516Z,101715.38
2023-04-10T11:46:08.181Z,101703.03
2023-04-10T11:48:38.720Z,101701.06
2023-04-10T11:51:14.899Z,101696.72
2023-04-10T11:53:43.442Z,101692.28
2023-04-10T11:56:22.162Z,101691.94
2023-04-10T11:58:55.540Z,101688.88
2023-04-10T12:01:24.256Z,101681.38
2023-04-10T12:03:52.587Z,101673.72
2023-04-10T12:06:22.072Z,101670.44
2023-04-10T12:08:52.846Z,101676.19
2023-04-10T12:11:24.923Z,101663.09
2023-04-10T12:13:58.288Z,101660.47
2023-04-10T12:16:28.791Z,101651.50
2023-04-10T12:18:59.536Z,101654.03
2023-04-10T12:21:29.921Z,101646.41
2023-04-10T12:24:00.105Z,101636.72
2023-04-10T12:26:30.883Z,101638.25
2023-04-10T12:29:01.165Z,101647.13
2023-04-10T12:31:35.779Z,101638.41
2023-04-10T12:34:08.519Z,101642.38
2023-04-10T12:36:39.968Z,101626.25
2023-04-10T12:39:25.197Z,101632.06
2023-04-10T12:42:22.766Z,101620.84
2023-04-10T12:45:01.293Z,101618.72
2023-04-10T12:47:31.067Z,101608.66
2023-04-10T12:50:13.860Z,101604.97
2023-04-10T12:53:01.758Z,101601.91
2023-04-10T12:55:31.415Z,101598.16
2023-04-10T12:57:59.033Z,101597.06
2023-04-10T13:00:27.345Z,101587.47
2023-04-10T13:02:56.023Z,101582.72
2023-04-10T13:05:25.375Z,101584.28
2023-04-10T13:07:53.041Z,101571.78
2023-04-10T13:10:22.121Z,101568.72
2023-04-10T13:12:49.688Z,101559.75
2023-04-10T13:15:18.179Z,101552.69
2023-04-10T13:17:46.613Z,101552.00
2023-04-10T13:20:15.132Z,101539.09
2023-04-10T13:22:43.602Z,101520.75
2023-04-10T13:25:11.901Z,101521.13
2023-04-10T13:27:40.558Z,101516.03
2023-04-10T13:30:09.601Z,101511.38
2023-04-10T13:32:38.873Z,101515.44
2023-04-10T13:35:08.355Z,101502.84
2023-04-10T13:37:35.893Z,101498.47
2023-04-10T13:40:05.391Z,101493.47
2023-04-10T13:42:32.578Z,101488.53
2023-04-10T13:45:01.608Z,101482.75
2023-04-10T13:47:29.456Z,101484.84
2023-04-10T13:49:57.768Z,101474.00
2023-04-10T13:52:26.297Z,101476.16
2023-04-10T13:54:54.815Z,101476.63
2023-04-10T13:57:23.125Z,101465.19
2023-04-10T13:59:51.638Z,101472.66
2023-04-10T14:02:20.192Z,101452.78
2023-04-10T14:04:51.464Z,101450.66
2023-04-10T14:07:21.618Z,101451.34
2023-04-10T14:09:51.896Z,101439.13
2023-04-10T14:12:23.539Z,101434.81
2023-04-10T14:14:54.031Z,101427.91
2023-04-10T14:17:24.864Z,101440.03
2023-04-10T14:19:54.176Z,101445.44
2023-04-10T14:22:24.198Z,101431.91
2023-04-10T14:24:58.924Z,101437.28
2023-04-10T14:27:35.741Z,101434.47
2023-04-10T14:30:07.319Z,101430.13
2023-04-10T14:32:36.250Z,101423.66
2023-04-10T14:35:07.738Z,101421.94
2023-04-10T14:37:39.088Z,101419.94
2023-04-10T14:40:10.435Z,101416.38
2023-04-10T14:42:40.736Z,101408.50
2023-04-10T14:45:11.361Z,101395.03
2023-04-10T14:47:41.983Z,101391.81
2023-04-10T14:50:12.461Z,101389.00
2023-04-10T14:52:42.568Z,101385.25
2023-04-10T14:55:12.739Z,101388.38
2023-04-10T14:57:42.853Z,101383.78
2023-04-10T15:00:13.640Z,101374.38
2023-04-10T15:02:44.050Z,101373.53
2023-04-10T15:05:14.603Z,101373.94
2023-04-10T15:07:44.715Z,101371.88
2023-04-10T15:10:14.962Z,101358.88
2023-04-10T15:12:45.088Z,101354.34
2023-04-10T15:15:15.454Z,101359.06
2023-04-10T15:17:45.740Z,101352.59
2023-04-10T15:20:16.152Z,101347.59
2023-04-10T15:22:48.318Z,101337.63
2023-04-10T15:25:18.509Z,101344.00
2023-04-10T15:27:48.622Z,101342.00
2023-04-10T15:30:19.459Z,101338.00
2023-04-10T15:32:49.745Z,101331.16
2023-04-10T15:35:21.123Z,101324.31
2023-04-10T15:37:51.491Z,101325.19
2023-04-10T15:40:21.688Z,101315.06
2023-04-10T15:42:51.850Z,101306.88
2023-04-10T15:45:22.056Z,101302.06
2023-04-10T15:47:52.301Z,101300.06
2023-04-10T15:50:22.453Z,101296.31
2023-04-10T15:52:52.711Z,101295.84
2023-04-10T15:55:22.844Z,101296.69
2023-04-10T15:57:51.312Z,101279.72
2023-04-10T16:00:20.464Z,101280.13
2023-04-10T16:02:48.295Z,101274.25
2023-04-10T16:05:16.624Z,101270.56
2023-04-10T16:07:45.034Z,101259.38
2023-04-10T16:10:13.410Z,101255.28
2023-04-10T16:12:42.519Z,101254.56
2023-04-10T16:15:11.112Z,101239.19
2023-04-10T16:17:40.026Z,101242.00
2023-04-10T16:20:08.819Z,101235.13
2023-04-10T16:22:36.765Z,101234.28
2023-04-10T16:25:05.542Z,101225.53
2023-04-10T16:27:33.051Z,101228.22
2023-04-10T16:30:01.743Z,101227.03
2023-04-10T16:32:31.680Z,101224.41
2023-04-10T16:35:02.168Z,101225.69
2023-04-10T16:37:32.334Z,101222.25
2023-04-10T16:40:02.683Z,101215.63
2023-04-10T16:42:32.893Z,101206.88
2023-04-10T16:45:03.184Z,101201.75
2023-04-10T16:47:33.314Z,101202.41
2023-04-10T16:50:03.709Z,101196.72
2023-04-10T16:52:34.515Z,101197.72
2023-04-10T16:55:05.290Z,101192.91
2023-04-10T16:57:35.702Z,101191.88
2023-04-10T17:00:07.254Z,101183.69
2023-04-10T17:02:37.714Z,101181.06
2023-04-10T17:05:08.101Z,101182.00
2023-04-10T17:07:36.319Z,101175.06
2023-04-10T17:10:05.631Z,101169.31
2023-04-10T17:12:33.297Z,101160.97
2023-04-10T17:15:01.764Z,101155.88
2023-04-10T17:17:30.187Z,101158.00
2023-04-10T17:19:58.708Z,101154.09
2023-04-10T17:22:26.914Z,101149.81
2023-04-10T17:24:55.335Z,101150.44
2023-04-10T17:27:23.787Z,101137.63
2023-04-10T17:29:52.247Z,101128.53
2023-04-10T17:32:20.701Z,101129.09
2023-04-10T17:34:49.045Z,101120.81
2023-04-10T17:37:19.888Z,101126.47
2023-04-10T17:39:51.905Z,101116.88
2023-04-10T17:42:23.306Z,101112.16
2023-04-10T17:44:53.529Z,101104.66
2023-04-10T17:47:23.376Z,101106.81
2023-04-10T17:49:53.234Z,101100.63
2023-04-10T17:52:24.148Z,101095.06
2023-04-10T17:54:54.391Z,101098.00
2023-04-10T17:57:23.988Z,101089.81
2023-04-10T17:59:52.337Z,101087.19
2023-04-10T18:02:20.883Z,101092.91
2023-04-10T18:04:49.121Z,101087.84
2023-04-10T18:07:17.588Z,101084.88
2023-04-10T18:09:45.985Z,101073.09
2023-04-10T18:12:19.409Z,101082.41
2023-04-10T18:14:48.866Z,101086.97
2023-04-10T18:17:17.291Z,101081.44
2023-04-10T18:19:45.729Z,101085.03
2023-04-10T18:22:14.032Z,101083.41
2023-04-10T18:24:42.487Z,101077.03
2023-04-10T18:27:10.894Z,101089.28
2023-04-10T18:29:39.528Z,101079.81
2023-04-10T18:32:07.898Z,101082.56
2023-04-10T18:34:36.361Z,101083.03
2023-04-10T18:37:04.628Z,101073.38
2023-04-10T18:39:33.102Z,101069.28
2023-04-10T18:42:02.968Z,101077.78
2023-04-10T18:44:34.717Z,101082.72
2023-04-10T18:47:04.781Z,101066.66
2023-04-10T18:49:35.295Z,101077.59
2023-04-10T18:52:05.061Z,101068.84
2023-04-10T18:54:36.158Z,101071.69
2023-04-10T18:57:07.710Z,101065.59
2023-04-10T18:59:38.009Z,101059.56
2023-04-10T19:02:09.115Z,101052.53
2023-04-10T19:04:39.539Z,101044.56
2023-04-10T19:07:09.381Z,101038.78
2023-04-10T19:09:39.492Z,101034.50
2023-04-10T19:12:14.465Z,101037.47
2023-04-10T19:14:44.626Z,101032.22
2023-04-10T19:17:14.285Z,101024.91
2023-04-10T19:19:44.797Z,101021.28
2023-04-10T19:22:15.272Z,101008.72
2023-04-10T19:24:45.752Z,101010.50
2023-04-10T19:27:15.485Z,101011.97
2023-04-10T19:29:45.521Z,101007.31
2023-04-10T19:32:15.266Z,101000.78
2023-04-10T19:34:51.312Z,101003.22
2023-04-10T19:37:21.674Z,100992.38
2023-04-10T19:39:49.754Z,100993.63
2023-04-10T19:42:19.676Z,100990.72
2023-04-10T19:44:49.475Z,100991.00
2023-04-10T19:47:19.452Z,100981.53
2023-04-10T19:49:48.300Z,100986.81
2023-04-10T19:52:18.119Z,100975.97
2023-04-10T19:54:47.871Z,100982.47
2023-04-10T19:57:17.742Z,100971.97
2023-04-10T19:59:47.484Z,100970.28
2023-04-10T20:02:18.268Z,100965.38
2023-04-10T20:04:48.818Z,100960.31
2023-04-10T20:07:19.193Z,100949.19
2023-04-10T20:09:48.924Z,100948.22
2023-04-10T20:12:18.825Z,100933.81
2023-04-10T20:14:48.579Z,100935.47
2023-04-10T20:17:18.403Z,100921.09
2023-04-10T20:19:48.066Z,100912.59
2023-04-10T20:22:18.018Z,100917.03
2023-04-10T20:24:47.838Z,100910.97
2023-04-10T20:27:18.063Z,100911.66
2023-04-10T20:29:48.094Z,100904.28
2023-04-10T20:32:18.006Z,100900.38
2023-04-10T20:34:47.348Z,100896.09
2023-04-10T20:37:18.859Z,100889.34
2023-04-10T20:39:46.086Z,100883.47
2023-04-10T20:42:17.208Z,100882.50
2023-04-10T20:44:47.355Z,100890.66
2023-04-10T20:47:17.127Z,100889.84
2023-04-10T20:49:46.973Z,100880.53
2023-04-10T20:52:16.721Z,100874.50
2023-04-10T20:54:46.639Z,100884.13
2023-04-10T20:57:16.434Z,100884.63
2023-04-10T20:59:46.310Z,100887.91
2023-04-10T21:02:18.203Z,100883.19
2023-04-10T21:04:50.355Z,100883.00
2023-04-10T21:07:20.267Z,100887.28
2023-04-10T21:09:50.029Z,100890.53
2023-04-10T21:12:19.899Z,100881.53
2023-04-10T21:14:49.798Z,100865.69
2023-04-10T21:17:20.046Z,100868.94
2023-04-10T21:19:50.134Z,100865.53
2023-04-10T21:22:19.900Z,100865.69
2023-04-10T21:24:48.352Z,100865.06
2023-04-10T21:27:17.062Z,100861.78
2023-04-10T21:29:45.932Z,100854.63
2023-04-10T21:32:13.636Z,100854.44
2023-04-10T21:34:42.028Z,100860.78
2023-04-10T21:37:10.548Z,100853.34
2023-04-10T21:39:43.485Z,100849.00
2023-04-10T21:42:19.450Z,100841.34
2023-04-10T21:44:49.519Z,100843.28
2023-04-10T21:47:19.358Z,100845.09
2023-04-10T21:49:47.688Z,100829.75
2023-04-10T21:52:16.137Z,100832.38
2023-04-10T21:54:44.546Z,100822.22
2023-04-10T21:57:12.986Z,100818.66
2023-04-10T21:59:41.435Z,100817.84
2023-04-10T22:02:11.065Z,100814.56
2023-04-10T22:04:51.492Z,100805.50
2023-04-10T22:07:24.091Z,100799.97
2023-04-10T22:09:54.212Z,100805.00
2023-04-10T22:12:23.669Z,100806.00
2023-04-10T22:14:53.370Z,100789.69
2023-04-10T22:17:23.840Z,100780.63
2023-04-10T22:19:53.462Z,100771.41
2023-04-10T22:22:23.190Z,100774.19
2023-04-10T22:24:52.872Z,100769.75
2023-04-10T22:27:24.289Z,100766.31
2023-04-10T22:30:02.643Z,100750.50
2023-04-10T22:32:32.940Z,100752.91
2023-04-10T22:35:03.201Z,100748.34
2023-04-10T22:37:32.997Z,100741.13
2023-04-10T22:40:03.101Z,100737.91
2023-04-10T22:42:31.960Z,100727.59
2023-04-10T22:45:00.971Z,100730.50
2023-04-10T22:47:28.231Z,100742.03
2023-04-10T22:49:57.923Z,100744.16
2023-04-10T22:52:27.778Z,100730.75
2023-04-10T22:54:57.963Z,100726.88
2023-04-10T22:57:27.724Z,100726.44
2023-04-10T22:59:59.488Z,100727.91
2023-04-10T23:02:28.213Z,100726.63
2023-04-10T23:04:58.211Z,100719.75
2023-04-10T23:07:28.073Z,100716.34
2023-04-10T23:09:58.305Z,100710.47
2023-04-10T23:12:28.291Z,100706.38
2023-04-10T23:14:58.061Z,100711.78
2023-04-10T23:17:27.776Z,100702.81
2023-04-10T23:19:57.584Z,100686.66
2023-04-10T23:22:29.806Z,100688.00
2023-04-10T23:24:59.782Z,100686.97
2023-04-10T23:27:29.612Z,100682.56
2023-04-10T23:29:59.882Z,100676.22
2023-04-10T23:32:29.819Z,100666.75
2023-04-10T23:34:59.897Z,100668.72
2023-04-10T23:37:29.713Z,100655.63
2023-04-10T23:39:59.845Z,100639.81
2023-04-10T23:42:29.208Z,100634.28
2023-04-10T23:44:58.982Z,100626.25
2023-04-10T23:47:28.871Z,100623.31
2023-04-10T23:49:58.924Z,100622.00
2023-04-10T23:52:29.178Z,100618.59
2023-04-10T23:55:02.349Z,100607.84
2023-04-10T23:57:31.870Z,100610.44
